Aviation Digital Data Service (ADDS)

Output produced by METARs form (2247 UTC 23 May 2022)
found at http://www.aviationweather.gov/metar/data/
 
HSDN 232200Z 34012KT CAVOK 27/M02 Q1010
HSOB 232000Z 34007KT CAVOK 31/07 Q1010
HSOB 231700Z 2318/2424 22008G18KT CAVOK
       
HSKA 231700Z 2318/2424 02008G18KT CAVOK
       
HSPN 232000Z 32006KT CAVOK 29/18 Q1008
HSPN 231700Z 2318/2424 04012G24KT CAVOK 
     BECMG 2321/2323 32008KT